Latest Weather Observations for Ulladulla

IDN60901

Issued at 9:12 am EDT Sunday 21 December 2014 (issued every 10 minutes, with the page automatically refreshed every 10 minutes)

About weather observations | Map of Canberra area stations | Latest observations for Canberra area | Other Formats
Station Details ID: 069138 Name: ULLADULLA AWS Lat: -35.36 Lon: 150.48 Height: 35.7 m
Data from the previous 72 hours. | See also: Recent months at Ulladulla
Date/Time
EDT
Tmp

°C
App
Tmp
°C
Dew
Point
°C
Rel
Hum
%
Delta-T

°C
Wind Press
QNH
hPa
Press
MSL
hPa
Rain
since
9 am
mm
Dir
 
Spd
km/h
Gust
km/h
Spd
kts
Gust
kts
21/09:00am 19.1 18.2 14.8 76 2.5 NE 13 19 7 10 1017.8 1017.7 0.0
21/08:30am 18.6 18.3 14.5 77 2.4 NE 9 11 5 6 1017.9 1017.8 0.0
21/08:00am 18.9 19.3 15.2 79 2.2 N 7 11 4 6 1017.8 1017.7 0.0
21/07:30am 17.7 17.9 14.8 83 1.7 N 7 11 4 6 1017.6 1017.5 0.0
21/07:00am 16.7 16.9 14.3 86 1.4 N 6 11 3 6 1017.5 1017.4 0.0
21/06:30am 16.0 16.7 14.4 90 0.9 N 4 7 2 4 1017.3 1017.2 0.0
21/05:30am 15.2 15.5 13.4 89 1.0 N 4 4 2 2 1017.2 1017.1 0.0
21/05:00am 15.7 16.8 13.5 87 1.2 CALM 0 0 0 0 1017.1 1017.0 0.0
21/04:30am 16.0 17.2 13.8 87 1.2 CALM 0 0 0 0 1017.1 1017.0 0.0
21/04:00am 15.9 16.9 13.2 84 1.5 CALM 0 0 0 0 1017.2 1017.1 0.0
21/03:30am 16.5 17.3 13.8 84 1.5 N 2 4 1 2 1017.2 1017.1 0.0
21/03:00am 16.8 17.6 13.7 82 1.8 N 2 6 1 3 1017.3 1017.2 0.0
21/02:30am 17.3 18.2 14.0 81 1.9 NNW 2 6 1 3 1017.5 1017.4 0.0
21/02:00am 17.5 17.7 14.2 81 1.9 N 6 7 3 4 1017.7 1017.6 0.0
21/01:30am 17.7 18.0 14.4 81 1.9 NNW 6 9 3 5 1018.0 1017.9 0.0
21/01:00am 17.7 18.0 14.6 82 1.8 N 6 7 3 4 1018.3 1018.2 0.0
21/12:30am 17.9 18.2 14.6 81 1.9 N 6 7 3 4 1018.7 1018.6 0.0
 
Date/Time
EDT
Tmp

°C
App
Tmp
°C
Dew
Point
°C
Rel
Hum
%
Delta-T

°C
Wind Press
QNH
hPa
Press
MSL
hPa
Rain
since
9 am
mm
Dir
 
Spd
km/h
Gust
km/h
Spd
kts
Gust
kts
20/11:30pm 18.3 18.9 14.2 77 2.4 NE 4 9 2 5 1019.2 1019.1 0.0
20/11:00pm 18.4 18.2 13.7 74 2.7 NE 7 9 4 5 1019.2 1019.1 0.0
20/10:30pm 18.3 17.7 13.4 73 2.8 NE 9 13 5 7 1019.1 1019.0 0.0
20/10:00pm 18.4 18.2 13.5 73 2.8 NE 7 13 4 7 1019.1 1019.0 0.0
20/09:30pm 18.5 18.5 13.6 73 2.8 NE 6 7 3 4 1018.9 1018.8 0.0
20/09:00pm 18.3 18.2 13.4 73 2.8 NE 6 9 3 5 1018.6 1018.5 0.0
20/08:30pm 18.4 18.4 13.5 73 2.8 NE 6 11 3 6 1018.4 1018.3 0.0
20/08:00pm 18.3 18.0 13.2 72 2.9 NE 7 13 4 7 1018.1 1018.0 0.0
20/07:30pm 18.5 18.3 13.1 71 3.0 NE 6 9 3 5 1017.7 1017.6 0.0
20/07:00pm 18.8 18.0 12.8 68 3.4 NE 9 13 5 7 1017.4 1017.3 0.0
20/06:30pm 19.2 18.0 12.9 67 3.6 NE 11 15 6 8 1016.9 1016.8 0.0
20/05:30pm 19.8 18.3 13.0 65 3.9 ENE 13 20 7 11 1016.4 1016.3 0.0
20/05:00pm 20.0 18.6 13.5 66 3.7 ENE 13 20 7 11 1016.1 1016.0 0.0
20/04:30pm 20.1 18.7 13.3 65 3.9 ENE 13 22 7 12 1016.1 1016.0 0.0
20/04:00pm 20.1 18.3 13.3 65 3.9 NE 15 26 8 14 1016.2 1016.1 0.0
20/03:30pm 20.0 18.1 13.0 64 4.0 NE 15 24 8 13 1016.4 1016.3 0.0
20/03:00pm 19.8 17.5 13.0 65 3.9 NE 17 26 9 14 1016.5 1016.4 0.0
20/02:30pm 20.4 18.3 13.6 65 3.9 NE 17 28 9 15 1016.8 1016.7 0.0
20/02:00pm 20.0 17.6 12.7 63 4.1 NE 17 28 9 15 1017.0 1016.9 0.0
20/01:30pm 20.5 18.8 13.7 65 3.9 NE 15 20 8 11 1017.2 1017.1 0.0
20/01:00pm 19.6 17.9 12.4 63 4.0 NE 13 19 7 10 1017.5 1017.4 0.0
20/12:30pm 20.1 19.2 13.6 66 3.7 ENE 11 19 6 10 1017.8 1017.7 0.0
20/12:00pm 19.8 18.3 13.0 65 3.8 NE 13 17 7 9 1017.9 1017.8 0.0
20/11:30am 19.8 18.8 13.3 66 3.7 NE 11 17 6 9 1018.1 1018.0 0.0
20/11:00am 19.0 17.9 13.2 69 3.3 NNE 11 17 6 9 1018.1 1018.0 0.0
20/10:30am 18.4 17.9 12.6 69 3.2 NE 7 11 4 6 1018.2 1018.1 0.0
20/10:00am 17.9 16.7 11.5 66 3.5 NE 9 13 5 7 1018.3 1018.2 0.0
20/09:30am 17.9 17.3 11.7 67 3.4 NNE 6 9 3 5 1018.4 1018.3 0.0
20/09:00am 18.1 17.4 11.4 65 3.6 N 6 11 3 6 1018.4 1018.3 0.6
20/08:30am 17.9 17.5 11.0 64 3.7 NE 4 6 2 3 1018.3 1018.2 0.6
20/08:00am 17.3 17.0 11.6 69 3.1 NW 4 11 2 6 1018.3 1018.2 0.6
20/07:30am 16.6 16.5 12.2 75 2.4 WNW 4 6 2 3 1018.1 1018.0 0.6
20/07:00am 15.8 16.6 12.4 80 1.9 CALM 0 0 0 0 1017.9 1017.8 0.6
20/06:30am 15.4 15.7 12.2 81 1.7 WNW 2 4 1 2 1017.8 1017.7 0.6
20/06:00am 14.9 14.7 11.7 81 1.7 WNW 4 6 2 3 1017.7 1017.6 0.6
20/05:30am 14.7 14.5 11.7 82 1.6 WNW 4 6 2 3 1017.5 1017.4 0.6
20/05:00am 14.6 14.4 11.7 83 1.6 W 4 6 2 3 1017.4 1017.3 0.6
20/04:30am 14.9 14.4 12.0 83 1.6 W 6 9 3 5 1017.3 1017.2 0.6
20/04:00am 15.0 14.5 12.1 83 1.6 W 6 9 3 5 1017.4 1017.3 0.6
20/03:30am 15.0 14.4 12.3 84 1.5 W 7 11 4 6 1017.6 1017.5 0.6
20/03:00am 14.9 14.5 12.4 85 1.4 WSW 6 9 3 5 1017.7 1017.6 0.6
20/02:30am 14.8 14.3 12.5 86 1.3 W 7 11 4 6 1018.0 1017.9 0.6
20/02:00am 14.7 14.2 12.6 87 1.1 WSW 7 11 4 6 1018.3 1018.2 0.6
20/01:30am 14.7 13.8 12.6 87 1.2 SW 9 13 5 7 1018.5 1018.4 0.6
20/01:00am 14.6 13.7 12.6 88 1.1 SW 9 13 5 7 1018.7 1018.6 0.6
20/12:30am 14.9 13.9 12.4 85 1.4 SW 9 13 5 7 1019.0 1018.9 0.6
20/12:00am 16.5 15.8 11.9 74 2.5 SSW 7 19 4 10 1019.1 1019.0 0.0
 
Date/Time
EDT
Tmp

°C
App
Tmp
°C
Dew
Point
°C
Rel
Hum
%
Delta-T

°C
Wind Press
QNH
hPa
Press
MSL
hPa
Rain
since
9 am
mm
Dir
 
Spd
km/h
Gust
km/h
Spd
kts
Gust
kts
19/11:30pm 17.1 15.1 10.0 63 3.8 SE 11 22 6 12 1019.0 1018.9 0.0
19/11:00pm 17.4 14.9 11.0 66 3.4 SSE 15 22 8 12 1019.1 1019.0 0.0
19/10:30pm 17.6 15.3 11.9 69 3.1 SSE 15 22 8 12 1018.9 1018.8 0.0
19/10:00pm 17.7 15.0 11.7 68 3.3 SSE 17 24 9 13 1018.6 1018.5 0.0
19/09:30pm 17.7 15.3 11.5 67 3.4 SSE 15 24 8 13 1018.3 1018.2 0.0
19/09:00pm 17.8 15.4 11.4 66 3.5 SSE 15 22 8 12 1017.9 1017.8 0.0
19/08:30pm 17.7 15.3 11.3 66 3.5 SSE 15 22 8 12 1017.6 1017.5 0.0
19/08:00pm 17.8 15.3 11.1 65 3.6 SSE 15 24 8 13 1017.2 1017.1 0.0
19/07:30pm 17.9 15.5 11.5 66 3.5 SSE 15 22 8 12 1016.7 1016.6 0.0
19/07:00pm 17.9 15.2 11.7 67 3.4 SSE 17 24 9 13 1016.2 1016.1 0.0
19/06:30pm 18.1 15.6 11.2 64 3.8 SSE 15 20 8 11 1015.6 1015.5 0.0
19/06:00pm 18.2 15.4 11.3 64 3.8 SSE 17 26 9 14 1015.2 1015.1 0.0
19/05:30pm 18.4 15.9 11.2 63 3.9 SSE 15 22 8 12 1015.0 1014.9 0.0
19/05:00pm 18.7 16.2 11.0 61 4.2 SSE 15 20 8 11 1014.5 1014.4 0.0
19/04:30pm 18.9 16.3 10.7 59 4.4 SSE 15 20 8 11 1014.1 1014.0 0.0
19/04:00pm 20.4 17.7 10.5 53 5.4 SSE 15 26 8 14 1013.9 1013.8 0.0
19/03:30pm 20.3 16.7 10.7 54 5.2 SSE 20 28 11 15 1013.6 1013.5 0.0
19/03:00pm 20.5 17.2 10.9 54 5.3 SSE 19 28 10 15 1013.5 1013.4 0.0
19/02:30pm 20.3 16.2 10.1 52 5.5 SSE 22 28 12 15 1013.5 1013.4 0.0
19/02:00pm 20.4 16.9 10.2 52 5.5 SSE 19 28 10 15 1013.6 1013.5 0.0
19/01:30pm 19.8 16.2 10.0 53 5.3 SSE 19 26 10 14 1013.6 1013.5 0.0
19/01:00pm 19.8 16.6 10.0 53 5.3 SSE 17 28 9 15 1013.6 1013.5 0.0
19/12:30pm 20.3 16.5 8.9 48 6.0 SSE 19 28 10 15 1013.6 1013.5 0.0
19/12:00pm 20.9 17.5 10.7 52 5.6 S 19 26 10 14 1013.6 1013.5 0.0
19/11:30am 19.7 15.2 9.9 53 5.2 S 24 30 13 16 1013.5 1013.4 0.0
19/11:00am 19.8 16.3 10.8 56 4.9 S 20 28 11 15 1013.3 1013.2 0.0
19/10:30am 19.0 16.8 10.8 59 4.4 S 13 26 7 14 1013.5 1013.4 0.0
19/10:00am 18.1 16.7 11.0 63 3.8 SSW 9 17 5 9 1013.6 1013.5 0.0
19/09:30am 18.2 16.1 11.0 63 3.9 SSW 13 19 7 10 1013.3 1013.2 0.0
19/09:00am 19.6 17.9 12.6 64 3.9 SSW 13 20 7 11 1013.2 1013.1 0.0
19/08:30am 18.1 15.7 11.4 65 3.7 SSW 15 22 8 12 1012.9 1012.8 0.0
19/08:00am 17.1 14.6 10.9 67 3.3 SSW 15 19 8 10 1012.6 1012.5 0.0
19/07:30am 16.9 14.9 11.4 70 3.0 SSW 13 19 7 10 1012.2 1012.1 0.0
19/07:00am 16.6 15.0 11.5 72 2.8 SW 11 20 6 11 1011.9 1011.8 0.0
19/06:30am 16.4 13.7 11.8 74 2.5 SSW 17 28 9 15 1011.5 1011.4 0.0
19/06:00am 16.1 14.0 12.3 78 2.1 SSW 15 20 8 11 1011.2 1011.1 0.0
19/05:30am 16.4 15.1 12.4 77 2.2 SSW 11 19 6 10 1010.8 1010.7 0.0
19/05:00am 16.3 15.4 12.5 78 2.1 SW 9 15 5 8 1010.5 1010.4 0.0
19/04:30am 16.4 15.4 13.5 83 1.6 SSW 11 15 6 8 1010.0 1009.9 0.0
19/04:00am 16.7 13.1 13.0 79 2.1 S 24 30 13 16 1009.6 1009.5 0.0
19/03:30am 17.4 11.9 12.5 73 2.7 S 33 43 18 23 1009.2 1009.1 0.0
19/03:00am 17.3 11.0 12.2 72 2.8 S 37 50 20 27 1009.1 1009.0 0.0
19/02:30am 17.3 12.1 13.4 78 2.2 S 33 46 18 25 1009.0 1008.9 0.0
19/02:00am 17.6 10.6 14.3 81 1.9 S 44 57 24 31 1008.2 1008.1 0.0
19/01:30am 17.8 10.5 14.5 81 1.9 S 46 63 25 34 1007.2 1007.1 0.0
19/01:08am 18.2 14.9 17.0 93 0.7 SSW 30 52 16 28 1006.7 1006.6 0.0
19/01:00am 18.8 18.7 17.8 94 0.6 SSW 15 24 8 13 1006.4 1006.3 0.0
19/12:30am 19.3 20.2 18.5 95 0.5 WSW 11 17 6 9 1005.5 1005.4 0.0
19/12:00am 19.3 21.0 18.5 95 0.5 WSW 7 11 4 6 1005.2 1005.1 0.0
 
Date/Time
EDT
Tmp

°C
App
Tmp
°C
Dew
Point
°C
Rel
Hum
%
Delta-T

°C
Wind Press
QNH
hPa
Press
MSL
hPa
Rain
since
9 am
mm
Dir
 
Spd
km/h
Gust
km/h
Spd
kts
Gust
kts
18/11:30pm 19.3 21.2 18.5 95 0.5 SW 6 9 3 5 1005.4 1005.3 0.0
18/11:00pm 20.1 21.8 19.3 95 0.5 NNW 9 13 5 7 1005.2 1005.1 0.0
18/10:30pm 20.3 22.1 19.5 95 0.5 N 9 15 5 8 1005.3 1005.2 0.0
18/10:00pm 20.5 21.6 19.7 95 0.5 N 13 17 7 9 1005.2 1005.1 0.0
18/09:30pm 20.5 21.7 19.8 96 0.4 N 13 17 7 9 1005.2 1005.1 0.0
18/09:00pm 19.8 20.3 19.3 97 0.3 N 15 22 8 12 1005.1 1005.0 0.0
18/08:30pm 19.3 20.3 18.6 96 0.4 NNW 11 17 6 9 1005.1 1005.0 0.0
18/08:00pm 19.3 20.4 18.0 92 0.8 NNW 9 15 5 8 1004.9 1004.8 0.0
18/07:30pm 19.9 20.9 17.7 87 1.4 N 9 17 5 9 1004.4 1004.3 0.0
18/07:00pm 20.5 21.2 17.9 85 1.6 NNE 11 24 6 13 1004.2 1004.1 0.0
18/06:30pm 20.4 21.3 17.6 84 1.7 NNE 9 17 5 9 1004.0 1003.9 0.0
18/06:00pm 20.7 20.5 17.7 83 1.9 NNE 15 24 8 13 1004.0 1003.9 0.0
18/05:30pm 20.8 21.3 17.4 81 2.1 NNE 11 28 6 15 1003.9 1003.8 0.0
18/05:00pm 21.1 20.9 17.7 81 2.1 NNE 15 24 8 13 1003.9 1003.8 0.0
18/04:30pm 21.2 21.4 17.6 80 2.2 NNE 13 24 7 13 1004.1 1004.0 0.0
18/04:00pm 21.0 19.0 17.4 80 2.2 NNE 24 37 13 20 1004.3 1004.2 0.0
18/03:30pm 20.4 19.2 17.4 83 1.8 NNE 20 32 11 17 1004.3 1004.2 0.0
18/03:00pm 20.4 19.2 17.4 83 1.8 NNE 20 30 11 16 1004.6 1004.5 0.0
18/02:30pm 21.0 20.5 17.8 82 2.0 NE 17 28 9 15 1004.8 1004.7 0.0
18/02:00pm 21.2 20.9 18.2 83 1.9 NE 17 26 9 14 1005.3 1005.2 0.0
18/01:30pm 21.1 20.6 17.7 81 2.1 NE 17 26 9 14 1005.9 1005.8 0.0
18/01:00pm 21.4 21.6 18.6 84 1.8 NE 15 24 8 13 1006.4 1006.3 0.0
18/12:30pm 21.0 21.3 17.8 82 2.0 NE 13 20 7 11 1007.0 1006.9 0.0
18/12:00pm 20.3 19.7 16.7 80 2.2 NE 15 28 8 15 1007.4 1007.3 0.0
18/11:30am 20.1 19.7 16.1 78 2.4 NNE 13 20 7 11 1008.0 1007.9 0.0
18/11:00am 19.7 18.4 14.7 73 2.9 NNE 15 20 8 11 1008.7 1008.6 0.0
18/10:30am 19.9 20.4 15.5 76 2.6 N 7 13 4 7 1009.1 1009.0 0.0
18/10:00am 18.5 18.3 14.6 78 2.3 N 9 17 5 9 1009.2 1009.1 0.0
18/09:30am 18.0 18.3 14.5 80 2.0 N 6 9 3 5 1009.5 1009.4 0.0

Latest Capital City Observations: Canberra | Sydney | Melbourne | Brisbane | Adelaide | Perth | Hobart | Darwin

Other Formats:

Comma delimited format used in spreadsheet applications
http://www.bom.gov.au/fwo/IDN60903/IDN60903.94938.axf

JavaScript Object Notation format (JSON) in row-major order
http://www.bom.gov.au/fwo/IDN60903/IDN60903.94938.json